Latest Weather Observations for Tamworth Airport

IDN60801

Issued at 9:02 pm EDT Monday 5 December 2016 (issued every 30 minutes, with the page automatically refreshed every 10 minutes)

About weather observations | Map of weather stations | Latest weather observations for NSW | Other Formats
Station Details ID: 055325 Name: TAMWORTH AIRPORT AWS Lat: -31.07 Lon: 150.84 Height: 394.9 m
Data from the previous 72 hours. | See also: Recent months at Tamworth Airport
Date/Time
EDT
Temp
°C
App
Temp
°C
Dew
Point
°C
Rel
Hum
%
Delta-T
°C
Wind Press
QNH
hPa
Press
MSL
hPa
Rain since
9am
mm
Dir  Spd
km/h
Gust
km/h
Spd
kts
Gust
kts
05/09:00pm 23.8 23.3 18.7 73 3.3 SE 19 24 10 13 1011.0 1009.0 2.2
05/08:30pm 23.6 23.2 18.9 75 3.0 SSE 19 24 10 13 1010.4 1008.4 2.2
05/08:07pm 23.5 23.0 19.0 76 2.9 SE 20 28 11 15 1010.5 1008.5 2.2
05/08:00pm 23.7 22.6 19.4 77 2.8 SSE 24 30 13 16 1010.4 1008.4 2.2
05/07:47pm 23.8 21.8 18.4 72 3.5 S 26 37 14 20 1010.7 1008.7 1.4
05/07:30pm 25.6 24.6 17.5 61 5.1 SSE 19 22 10 12 1009.8 1007.8 0.0
05/07:00pm 26.6 25.9 18.2 60 5.4 SE 19 24 10 13 1009.5 1007.5 0.0
05/06:30pm 26.9 26.2 18.2 59 5.6 SE 19 24 10 13 1009.3 1007.3 0.0
05/06:08pm 27.1 24.4 18.4 59 5.6 SE 30 39 16 21 1009.1 1007.1 0.0
05/06:00pm 26.5 24.0 18.1 60 5.4 SE 28 39 15 21 1008.9 1006.9 0.0
05/05:49pm 28.6 27.4 17.5 51 7.1 E 20 28 11 15 1008.9 1006.9 0.0
05/05:30pm 30.2 27.6 16.9 44 8.5 SE 26 39 14 21 1008.4 1006.4 0.0
05/05:19pm 31.9 31.0 18.1 43 9.0 SSE 20 30 11 16 1008.7 1006.7 0.0
05/05:00pm 37.1 32.3 11.8 22 15.4 WNW 28 41 15 22 1008.6 1006.6 0.0
05/04:46pm 37.8 32.6 11.7 21 15.9 WNW 30 48 16 26 1008.5 1006.5 0.0
05/04:30pm 37.8 32.1 11.0 20 16.2 WNW 32 46 17 25 1008.5 1006.5 0.0
05/04:00pm 37.0 31.5 11.8 22 15.4 NNW 32 46 17 25 1008.6 1006.6 0.0
05/03:30pm 39.1 33.6 12.0 20 16.7 WNW 32 46 17 25 1009.1 1007.1 0.0
05/03:00pm 38.5 32.9 10.0 18 17.0 NW 30 39 16 21 1009.6 1007.6 0.0
05/02:30pm 37.2 32.9 11.9 22 15.4 W 26 39 14 21 1009.8 1007.8 0.0
05/02:00pm 39.5 34.7 11.6 19 17.1 NW 28 41 15 22 1010.1 1008.1 0.0
05/01:30pm 36.8 34.3 14.1 25 14.3 NNW 20 32 11 17 1010.5 1008.5 0.0
05/01:00pm 37.8 35.0 14.4 25 14.8 NNW 22 35 12 19 1011.0 1009.0 0.0
05/12:30pm 35.7 33.9 15.4 29 12.9 N 19 30 10 16 1011.3 1009.3 0.0
05/12:00pm 35.4 32.9 15.2 30 12.8 NNW 22 35 12 19 1011.9 1009.9 0.0
05/11:30am 34.2 31.9 14.7 31 12.2 NNW 20 30 11 16 1012.1 1010.1 0.0
05/11:00am 34.9 33.0 15.7 31 12.3 NNW 20 30 11 16 1012.4 1010.5 0.0
05/10:30am 33.4 31.1 16.7 36 10.8 N 24 32 13 17 1012.6 1010.7 0.0
05/10:00am 32.4 29.6 16.3 38 10.3 NNW 26 33 14 18 1012.8 1010.8 0.0
05/09:30am 31.6 28.8 16.4 40 9.7 N 26 33 14 18 1013.1 1011.1 0.0
05/09:00am 30.2 27.0 17.3 46 8.3 N 30 41 16 22 1013.4 1011.4 0.0
05/08:30am 29.1 26.9 17.0 48 7.7 N 24 35 13 19 1013.6 1011.6 0.0
05/08:00am 29.0 26.4 16.9 48 7.7 N 26 37 14 20 1013.4 1011.4 0.0
05/07:56am 29.0 26.4 16.9 48 7.7 N 26 37 14 20 1013.3 1011.3 0.0
05/07:30am 28.5 29.7 15.8 46 7.9 NNE 4 11 2 6 1013.3 1011.3 0.0
05/07:00am 26.3 26.1 15.7 52 6.6 S 11 15 6 8 1013.1 1011.1 0.0
05/06:30am 23.8 22.9 14.8 57 5.4 SW 13 20 7 11 1013.0 1011.0 0.0
05/06:00am 24.5 23.8 14.3 53 6.1 E 11 15 6 8 1012.0 1010.0 0.0
05/05:30am 24.8 23.7 14.3 52 6.3 NNE 13 17 7 9 1012.1 1010.1 0.0
05/05:00am 23.7 23.4 14.4 56 5.6 WNW 9 13 5 7 1012.9 1010.9 0.0
05/04:30am 22.8 21.5 15.9 65 4.2 W 17 19 9 10 1012.1 1010.1 0.0
05/04:00am 22.0 22.4 15.4 66 4.0 SW 7 11 4 6 1011.6 1009.6 0.0
05/03:30am 23.6 24.2 15.4 60 5.0 SW 6 9 3 5 1011.7 1009.7 0.0
05/03:00am 22.4 22.7 14.5 61 4.7 SW 6 9 3 5 1011.5 1009.5 0.0
05/02:30am 25.7 25.4 13.2 46 7.4 SE 7 9 4 5 1011.4 1009.4 0.0
05/02:00am 27.2 26.0 13.9 44 8.0 NE 13 17 7 9 1011.6 1009.6 0.0
05/01:30am 28.2 26.8 14.4 42 8.4 ENE 15 22 8 12 1011.6 1009.6 0.0
05/01:00am 28.0 26.9 15.3 46 7.9 E 15 22 8 12 1011.7 1009.7 0.0
05/12:30am 27.7 26.2 15.4 47 7.6 ESE 17 26 9 14 1011.8 1009.8 0.0
05/12:00am 28.3 26.4 15.2 44 8.1 E 19 28 10 15 1012.3 1010.4 0.0
 
Date/Time
EDT
Temp
°C
App
Temp
°C
Dew
Point
°C
Rel
Hum
%
Delta-T
°C
Wind Press
QNH
hPa
Press
MSL
hPa
Rain since
9am
mm
Dir  Spd
km/h
Gust
km/h
Spd
kts
Gust
kts
04/11:53pm 28.5 27.0 15.4 45 8.1 E 17 28 9 15 1012.3 1010.4 0.0
04/11:37pm 28.3 27.2 15.2 44 8.1 ESE 15 20 8 11 1012.5 1010.6 0.0
04/11:30pm 28.6 27.5 15.2 44 8.3 ESE 15 20 8 11 1012.6 1010.7 0.0
04/11:00pm 27.9 29.6 15.2 46 7.9 CALM 0 7 0 4 1012.9 1010.9 0.0
04/10:30pm 28.7 28.7 14.1 40 8.9 SE 7 13 4 7 1012.8 1010.8 0.0
04/10:00pm 29.2 27.7 13.0 37 9.7 SE 13 20 7 11 1012.4 1010.5 0.0
04/09:30pm 28.1 25.0 10.3 33 10.2 SE 17 20 9 11 1011.9 1009.9 0.0
04/09:00pm 28.8 25.6 10.0 31 10.8 SE 17 20 9 11 1011.6 1009.6 0.0
04/08:30pm 28.4 25.4 9.2 30 10.8 SE 15 17 8 9 1011.4 1009.4 0.0
04/08:00pm 29.9 27.0 8.3 26 12.1 SE 13 15 7 8 1011.3 1009.3 0.0
04/07:30pm 33.8 30.6 7.0 19 15.0 ESE 13 15 7 8 1011.2 1009.2 0.0
04/07:00pm 35.5 32.6 6.7 17 16.1 ESE 11 13 6 7 1011.3 1009.3 0.0
04/06:30pm 35.5 33.6 7.6 18 15.8 SE 7 11 4 6 1011.1 1009.1 0.0
04/06:00pm 36.5 34.4 5.7 15 17.1 SSW 6 17 3 9 1011.1 1009.1 0.0
04/05:30pm 37.6 36.2 5.6 14 17.8 NNE 2 9 1 5 1011.0 1009.0 0.0
04/05:00pm 37.5 34.4 5.5 14 17.8 S 11 17 6 9 1011.2 1009.2 0.0
04/04:30pm 37.9 34.5 5.8 14 17.9 SW 13 24 7 13 1011.4 1009.4 0.0
04/04:00pm 37.1 34.2 8.0 17 16.8 W 13 24 7 13 1011.7 1009.7 0.0
04/03:30pm 37.6 36.1 9.2 18 16.7 E 7 17 4 9 1012.1 1010.1 0.0
04/03:00pm 36.6 34.3 7.6 17 16.6 SW 9 17 5 9 1012.4 1010.5 0.0
04/02:30pm 37.0 33.8 7.0 16 17.0 W 13 19 7 10 1012.8 1010.8 0.0
04/02:00pm 36.0 33.2 8.7 19 15.8 WSW 13 19 7 10 1013.2 1011.2 0.0
04/01:30pm 36.0 34.0 8.7 19 15.8 SW 9 15 5 8 1013.6 1011.6 0.0
04/01:00pm 34.9 32.3 9.3 21 14.9 WSW 13 24 7 13 1014.0 1012.0 0.0
04/12:30pm 33.8 32.4 11.0 25 13.5 NNW 9 17 5 9 1014.5 1012.6 0.0
04/12:00pm 33.3 32.5 11.8 27 12.9 NNE 7 13 4 7 1015.0 1013.1 0.0
04/11:30am 32.4 30.8 11.6 28 12.4 N 11 19 6 10 1015.2 1013.3 0.0
04/11:00am 31.8 30.1 12.6 31 11.6 N 13 22 7 12 1015.7 1013.7 0.0
04/10:30am 30.3 28.4 11.8 32 11.0 N 13 24 7 13 1016.0 1014.0 0.0
04/10:00am 29.4 27.3 12.3 34 10.2 N 15 24 8 13 1016.2 1014.2 0.0
04/09:30am 28.3 28.0 13.4 40 9.0 NNE 7 13 4 7 1016.6 1014.6 0.0
04/09:00am 26.4 26.2 13.5 45 7.7 SSE 7 11 4 6 1016.7 1014.8 2.0
04/08:30am 23.7 23.0 14.4 56 5.6 SE 11 15 6 8 1016.8 1014.9 2.0
04/08:00am 22.5 22.1 14.1 59 5.0 SSE 9 15 5 8 1016.7 1014.8 2.0
04/07:30am 21.1 21.1 14.3 65 4.0 ESE 7 9 4 5 1016.5 1014.5 2.0
04/07:00am 19.9 19.7 14.7 72 3.1 SE 9 11 5 6 1016.5 1014.5 2.0
04/06:30am 17.5 18.3 13.6 78 2.2 ESE 2 7 1 4 1016.3 1014.3 2.0
04/06:00am 17.7 17.1 13.6 77 2.4 SE 9 13 5 7 1016.1 1014.1 2.0
04/05:30am 17.8 16.5 13.7 77 2.4 SSE 13 15 7 8 1016.1 1014.1 2.0
04/05:00am 17.6 16.3 13.7 78 2.3 SSE 13 17 7 9 1015.6 1013.6 2.0
04/04:30am 17.5 16.6 13.8 79 2.1 SE 11 15 6 8 1015.2 1013.3 2.0
04/04:00am 17.8 18.0 14.3 80 2.0 S 6 9 3 5 1015.3 1013.4 2.0
04/03:30am 18.3 18.3 13.6 74 2.7 SSE 6 7 3 4 1015.2 1013.3 2.0
04/03:00am 18.0 18.2 14.7 81 1.9 S 7 15 4 8 1015.5 1013.5 2.0
04/02:30am 18.2 19.1 14.1 77 2.4 W 2 7 1 4 1015.7 1013.7 2.0
04/02:00am 19.3 19.8 14.1 72 3.0 S 4 9 2 5 1015.5 1013.5 2.0
04/01:30am 20.3 19.1 14.0 67 3.7 SSE 13 15 7 8 1015.5 1013.5 2.0
04/01:00am 21.0 20.2 13.9 64 4.2 SE 11 15 6 8 1015.1 1013.2 2.0
04/12:30am 21.8 21.0 13.9 61 4.7 SE 11 15 6 8 1015.2 1013.3 2.0
04/12:00am 23.9 21.9 14.0 54 5.9 ESE 17 20 9 11 1015.5 1013.5 2.0
 
Date/Time
EDT
Temp
°C
App
Temp
°C
Dew
Point
°C
Rel
Hum
%
Delta-T
°C
Wind Press
QNH
hPa
Press
MSL
hPa
Rain since
9am
mm
Dir  Spd
km/h
Gust
km/h
Spd
kts
Gust
kts
03/11:30pm 24.5 22.8 14.6 54 6.0 ESE 17 20 9 11 1015.5 1013.5 2.0
03/11:00pm 25.0 24.4 15.6 56 5.8 ENE 13 20 7 11 1015.2 1013.3 2.0
03/10:30pm 25.3 24.6 16.4 57 5.6 ESE 15 20 8 11 1014.9 1013.0 2.0
03/10:00pm 25.8 23.8 15.5 53 6.4 ESE 20 33 11 18 1014.3 1012.3 2.0
03/09:30pm 26.8 24.1 15.5 50 7.0 ESE 24 33 13 18 1013.9 1011.9 2.0
03/09:00pm 27.6 24.3 14.9 45 7.8 E 26 39 14 21 1013.2 1011.2 2.0
03/08:30pm 28.1 23.7 15.1 45 8.0 E 32 43 17 23 1012.9 1010.9 2.0
03/08:00pm 30.0 27.5 16.1 43 8.8 SE 24 32 13 17 1012.0 1010.0 2.0
03/07:30pm 31.2 27.7 14.4 36 10.4 SSE 26 35 14 19 1011.2 1009.2 2.0
03/07:19pm 32.1 29.3 13.3 31 11.5 SSE 20 35 11 19 1010.8 1008.8 2.0
03/07:00pm 33.8 32.8 10.4 24 13.8 SSE 6 11 3 6 1010.3 1008.3 2.0
03/06:30pm 34.2 32.9 10.1 23 14.1 NNE 7 9 4 5 1009.8 1007.8 2.0
03/06:00pm 34.6 33.3 9.8 22 14.5 NNW 7 9 4 5 1009.4 1007.4 2.0
03/05:30pm 34.0 33.0 13.5 29 12.6 NNW 11 15 6 8 1009.3 1007.3 2.0
03/05:00pm 30.5 27.7 11.5 31 11.2 N 17 30 9 16 1009.4 1007.4 2.0
03/04:30pm 31.1 28.3 9.9 27 12.2 NNE 15 39 8 21 1009.8 1007.8 2.0
03/04:00pm 27.9 25.9 15.5 46 7.7 SW 20 35 11 19 1010.1 1008.1 0.8
03/03:56pm 27.6 25.2 14.3 44 8.1 WSW 20 35 11 19 1010.3 1008.3 0.8
03/03:42pm 27.2 18.9 9.5 33 10.0 W 43 72 23 39 1010.5 1008.5 0.4
03/03:38pm 31.3 22.0 5.7 20 13.8 WNW 44 76 24 41 1010.4 1008.4 0.0
03/03:36pm 34.1 25.5 4.7 16 15.8 WNW 39 76 21 41 1010.3 1008.3 0.0
03/03:34pm 34.5 26.4 3.1 14 16.5 WNW 35 76 19 41 1009.8 1007.8 0.0
03/03:32pm 35.2 28.5 3.7 14 16.8 W 28 76 15 41 1009.8 1007.8 0.0
03/03:30pm 35.8 30.0 4.2 14 17.1 W 24 32 13 17 1009.9 1008.0 0.0
03/03:00pm 40.0 34.7 5.2 12 19.5 WSW 22 37 12 20 1010.1 1008.1 0.0
03/02:30pm 39.2 34.2 4.6 12 19.1 WSW 20 32 11 17 1010.8 1008.8 0.0
03/02:00pm 37.5 33.1 6.5 15 17.5 W 19 28 10 15 1011.1 1009.1 0.0
03/01:30pm 37.6 34.4 8.4 17 16.9 NW 15 22 8 12 1011.6 1009.6 0.0
03/01:00pm 36.6 34.0 9.2 19 16.0 W 13 26 7 14 1012.1 1010.1 0.0
03/12:30pm 36.0 33.1 9.5 20 15.5 N 15 24 8 13 1012.4 1010.5 0.0
03/12:00pm 35.7 31.4 9.3 20 15.4 NW 22 33 12 18 1012.9 1010.9 0.0
03/11:30am 34.5 31.1 9.0 21 14.7 N 17 28 9 15 1013.2 1011.2 0.0
03/11:00am 33.8 30.2 8.4 21 14.5 NNW 17 28 9 15 1013.7 1011.7 0.0
03/10:30am 33.8 31.0 7.0 19 15.0 NE 11 30 6 16 1014.0 1012.0 0.0
03/10:00am 31.5 29.3 5.1 19 14.1 NNE 6 20 3 11 1014.4 1012.4 0.0
03/09:30am 30.1 28.2 6.7 23 12.8 SE 6 9 3 5 1014.5 1012.6 0.0
03/09:00am 29.0 26.6 7.0 25 12.0 SE 9 13 5 7 1014.6 1012.7 0.0
03/08:30am 29.8 26.8 7.7 25 12.2 ESE 13 17 7 9 1014.3 1012.3 0.0
03/08:00am 27.0 24.5 8.4 31 10.3 SE 11 15 6 8 1014.4 1012.4 0.0
03/07:30am 26.2 22.6 8.2 32 9.9 SSE 17 20 9 11 1014.2 1012.2 0.0
03/07:00am 23.2 19.7 8.9 40 7.8 SSE 17 22 9 12 1014.0 1012.0 0.0
03/06:30am 22.2 18.5 9.4 44 7.0 S 19 22 10 12 1013.6 1011.6 0.0
03/06:00am 20.7 16.8 9.6 49 6.1 S 20 22 11 12 1013.2 1011.2 0.0
03/05:30am 20.3 16.6 9.5 50 5.9 SSE 19 20 10 11 1012.9 1010.9 0.0
03/05:00am 20.5 17.2 9.4 49 6.0 S 17 19 9 10 1012.4 1010.5 0.0
03/04:30am 19.3 17.7 10.3 56 4.9 S 9 13 5 7 1012.2 1010.3 0.0
03/04:00am 20.8 18.7 9.7 49 6.1 S 11 15 6 8 1012.3 1010.4 0.0
03/03:30am 21.6 19.8 8.1 42 7.2 SSW 7 11 4 6 1012.4 1010.5 0.0
03/03:00am 25.6 23.7 9.0 35 9.2 E 9 13 5 7 1012.9 1010.9 0.0
03/02:30am 26.1 23.4 9.0 34 9.5 E 13 20 7 11 1013.2 1011.2 0.0
03/02:00am 26.0 22.5 8.9 34 9.5 E 17 22 9 12 1013.6 1011.6 0.0
03/01:30am 24.5 21.8 8.9 37 8.6 ESE 13 17 7 9 1014.2 1012.2 0.0
03/01:00am 24.5 22.1 7.2 33 9.2 ESE 9 11 5 6 1014.5 1012.6 0.0
03/12:30am 25.7 22.0 6.3 29 10.3 SE 15 20 8 11 1014.4 1012.4 0.0
03/12:00am 26.7 22.0 6.2 27 10.9 SSE 20 26 11 14 1014.6 1012.7 0.0
 
Date/Time
EDT
Temp
°C
App
Temp
°C
Dew
Point
°C
Rel
Hum
%
Delta-T
°C
Wind Press
QNH
hPa
Press
MSL
hPa
Rain since
9am
mm
Dir  Spd
km/h
Gust
km/h
Spd
kts
Gust
kts
02/11:30pm 27.1 22.4 6.0 26 11.2 SSE 20 24 11 13 1014.3 1012.3 0.0
02/11:00pm 26.7 22.8 7.2 29 10.5 SE 17 20 9 11 1014.5 1012.6 0.0
02/10:30pm 26.1 22.5 6.7 29 10.3 SSE 15 17 8 9 1014.5 1012.6 0.0
02/10:00pm 26.3 23.2 7.4 30 10.2 SSE 13 15 7 8 1014.4 1012.4 0.0
02/09:30pm 27.2 24.3 6.6 27 11.0 SSE 11 15 6 8 1014.1 1012.1 0.0

Other Formats:

Comma delimited format used in spreadsheet applications
http://www.bom.gov.au/fwo/IDN60801/IDN60801.95762.axf

JavaScript Object Notation format (JSON) in row-major order
http://www.bom.gov.au/fwo/IDN60801/IDN60801.95762.json